createdAt,value
2022-11-17T00:00:03.199Z,5.20
2022-11-17T00:01:03.400Z,5.20
2022-11-17T00:02:03.529Z,5.20
2022-11-17T00:03:03.606Z,5.20
2022-11-17T00:04:02.667Z,5.20
2022-11-17T00:05:02.699Z,5.20
2022-11-17T00:06:02.736Z,5.20
2022-11-17T00:07:02.812Z,5.20
2022-11-17T00:08:02.716Z,5.20
2022-11-17T00:09:02.812Z,5.30
2022-11-17T00:10:02.817Z,5.30
2022-11-17T00:11:02.841Z,5.30
2022-11-17T00:12:02.784Z,5.30
2022-11-17T00:13:03.005Z,5.30
2022-11-17T00:14:03.019Z,5.30
2022-11-17T00:15:02.945Z,5.30
2022-11-17T00:16:03.120Z,5.30
2022-11-17T00:17:03.140Z,5.30
2022-11-17T00:18:03.343Z,5.30
2022-11-17T00:19:03.329Z,5.30
2022-11-17T00:20:03.466Z,5.40
2022-11-17T00:21:03.550Z,5.40
2022-11-17T00:22:03.491Z,5.40
2022-11-17T00:23:03.519Z,5.40
2022-11-17T00:24:02.661Z,5.40
2022-11-17T00:25:02.689Z,5.40
2022-11-17T00:26:02.817Z,5.40
2022-11-17T00:27:02.835Z,5.40
2022-11-17T00:28:02.802Z,5.50
2022-11-17T00:29:02.819Z,5.50
2022-11-17T00:30:02.891Z,5.50
2022-11-17T00:31:02.871Z,5.50
2022-11-17T00:32:03.118Z,5.50
2022-11-17T00:33:03.121Z,5.50
2022-11-17T00:34:03.073Z,5.50
2022-11-17T00:35:03.152Z,5.50
2022-11-17T00:36:03.328Z,5.50
2022-11-17T00:37:03.425Z,5.50
2022-11-17T00:38:03.516Z,5.50
2022-11-17T00:39:03.528Z,5.50
2022-11-17T00:40:03.621Z,5.50
2022-11-17T00:41:02.660Z,5.60
2022-11-17T00:42:02.687Z,5.60
2022-11-17T00:43:02.682Z,5.60
2022-11-17T00:44:02.764Z,5.60
2022-11-17T00:45:02.705Z,5.60
2022-11-17T00:46:02.755Z,5.60
2022-11-17T00:47:02.912Z,5.60
2022-11-17T00:48:03.113Z,5.70
2022-11-17T00:49:03.057Z,5.60
2022-11-17T00:50:03.027Z,5.60
2022-11-17T00:51:03.189Z,5.70
2022-11-17T00:52:03.383Z,5.70
2022-11-17T00:53:03.444Z,5.70
2022-11-17T00:54:02.700Z,5.70
2022-11-17T00:55:02.679Z,5.70
2022-11-17T00:56:02.723Z,5.70
2022-11-17T00:57:02.705Z,5.70
2022-11-17T00:58:02.875Z,5.70
2022-11-17T00:59:02.978Z,5.70
2022-11-17T01:00:03.127Z,5.70
2022-11-17T01:01:03.163Z,5.80
2022-11-17T01:02:03.197Z,5.80
2022-11-17T01:03:03.198Z,5.80
2022-11-17T01:04:03.592Z,5.80
2022-11-17T01:05:03.316Z,5.80
2022-11-17T01:06:03.339Z,5.80
2022-11-17T01:07:03.500Z,5.80
2022-11-17T01:08:03.444Z,5.80
2022-11-17T01:09:03.475Z,5.80
2022-11-17T01:10:03.708Z,5.80
2022-11-17T01:11:03.017Z,5.80
2022-11-17T01:12:03.007Z,5.80
2022-11-17T01:13:03.056Z,5.80
2022-11-17T01:14:03.034Z,5.80
2022-11-17T01:15:03.025Z,5.80
2022-11-17T01:16:03.103Z,5.80
2022-11-17T01:17:03.106Z,5.80
2022-11-17T01:18:03.314Z,5.90
2022-11-17T01:19:03.400Z,5.90
2022-11-17T01:20:03.474Z,5.90
2022-11-17T01:21:03.461Z,5.90
2022-11-17T01:22:03.537Z,5.90
2022-11-17T01:23:03.613Z,5.90
2022-11-17T01:24:03.606Z,5.90
2022-11-17T01:25:02.662Z,5.90
2022-11-17T01:26:02.782Z,5.90
2022-11-17T01:27:02.867Z,5.90
2022-11-17T01:28:02.906Z,5.90
2022-11-17T01:29:02.858Z,5.90
2022-11-17T01:30:02.920Z,5.90
2022-11-17T01:31:03.017Z,5.90
2022-11-17T01:32:03.027Z,5.90
2022-11-17T01:33:03.163Z,6.00
2022-11-17T01:34:03.309Z,6.00
2022-11-17T01:35:03.304Z,6.00
2022-11-17T01:36:03.327Z,6.00
2022-11-17T01:37:03.310Z,6.00
2022-11-17T01:38:03.287Z,6.00
2022-11-17T01:39:03.363Z,6.00
2022-11-17T01:40:03.445Z,6.00
2022-11-17T01:41:03.451Z,6.00
2022-11-17T01:42:03.625Z,6.00
2022-11-17T01:43:03.551Z,6.10
2022-11-17T01:44:03.577Z,6.10
2022-11-17T01:45:02.690Z,6.10
2022-11-17T01:46:02.672Z,6.10
2022-11-17T01:47:02.705Z,6.10
2022-11-17T01:48:02.837Z,6.10
2022-11-17T01:49:02.889Z,6.10
2022-11-17T01:50:02.806Z,6.10
2022-11-17T01:51:02.782Z,6.10
2022-11-17T01:52:02.773Z,6.10
2022-11-17T01:53:02.879Z,6.10
2022-11-17T01:54:02.808Z,6.10
2022-11-17T01:55:02.808Z,6.10
2022-11-17T01:56:02.933Z,6.20
2022-11-17T01:57:02.919Z,6.20
2022-11-17T01:58:03.029Z,6.20
2022-11-17T01:59:03.209Z,6.20
2022-11-17T02:00:03.096Z,6.20
2022-11-17T02:01:03.291Z,6.20
2022-11-17T02:02:03.331Z,6.20
2022-11-17T02:03:03.263Z,6.20
2022-11-17T02:04:03.284Z,6.20
2022-11-17T02:05:03.361Z,6.20
2022-11-17T02:06:03.334Z,6.20
2022-11-17T02:07:03.330Z,6.20
2022-11-17T02:08:03.488Z,6.20
2022-11-17T02:09:03.570Z,6.20
2022-11-17T02:10:02.649Z,6.20
2022-11-17T02:11:02.694Z,6.20
2022-11-17T02:12:02.851Z,6.20
2022-11-17T02:13:02.917Z,6.20
2022-11-17T02:14:02.959Z,6.20
2022-11-17T02:15:02.943Z,6.20
2022-11-17T02:16:03.023Z,6.20
2022-11-17T02:17:09.069Z,6.20
2022-11-17T02:18:03.220Z,6.30
2022-11-17T02:19:03.274Z,6.30
2022-11-17T02:20:03.226Z,6.30
2022-11-17T02:21:03.298Z,6.30
2022-11-17T02:22:03.329Z,6.30
2022-11-17T02:23:03.301Z,6.30
2022-11-17T02:24:03.370Z,6.30
2022-11-17T02:25:04.315Z,6.30
2022-11-17T02:26:03.341Z,6.30
2022-11-17T02:27:03.302Z,6.30
2022-11-17T02:28:03.284Z,6.30
2022-11-17T02:29:03.307Z,6.30
2022-11-17T02:30:03.293Z,6.30
2022-11-17T02:31:03.428Z,6.30
2022-11-17T02:32:03.464Z,6.30
2022-11-17T02:33:03.329Z,6.30
2022-11-17T02:34:03.424Z,6.30
2022-11-17T02:35:03.623Z,6.30
2022-11-17T02:36:02.777Z,6.30
2022-11-17T02:37:02.918Z,6.30
2022-11-17T02:38:03.051Z,6.30
2022-11-17T02:39:03.126Z,6.30
2022-11-17T02:40:03.176Z,6.40
2022-11-17T02:41:03.194Z,6.40
2022-11-17T02:42:03.320Z,6.40
2022-11-17T02:43:03.558Z,6.40
2022-11-17T02:44:03.668Z,6.40
2022-11-17T02:45:02.619Z,6.40
2022-11-17T02:46:03.274Z,6.40
2022-11-17T02:47:03.208Z,6.40
2022-11-17T02:48:03.325Z,6.40
2022-11-17T02:49:03.462Z,6.40
2022-11-17T02:50:03.581Z,6.40
2022-11-17T02:51:03.586Z,6.40
2022-11-17T02:52:03.563Z,6.40
2022-11-17T02:53:03.631Z,6.40
2022-11-17T02:54:03.590Z,6.40
2022-11-17T02:55:03.652Z,6.40
2022-11-17T02:56:03.605Z,6.40
2022-11-17T02:57:02.739Z,6.40
2022-11-17T02:58:03.438Z,6.40
2022-11-17T02:59:03.401Z,6.40
2022-11-17T03:00:03.469Z,6.40
2022-11-17T03:01:02.762Z,6.40
2022-11-17T03:02:02.817Z,6.40
2022-11-17T03:03:02.940Z,6.40
2022-11-17T03:04:02.967Z,6.40
2022-11-17T03:05:02.979Z,6.40
2022-11-17T03:06:03.012Z,6.40
2022-11-17T03:07:03.096Z,6.40
2022-11-17T03:08:03.061Z,6.40
2022-11-17T03:09:03.102Z,6.40
2022-11-17T03:10:03.272Z,6.40
2022-11-17T03:11:03.423Z,6.40
2022-11-17T03:12:03.505Z,6.40
2022-11-17T03:13:03.569Z,6.40
2022-11-17T03:14:03.518Z,6.40
2022-11-17T03:15:03.642Z,6.40
2022-11-17T03:16:03.645Z,6.40
2022-11-17T03:17:02.662Z,6.40
2022-11-17T03:18:02.886Z,6.40
2022-11-17T03:19:02.884Z,6.40
2022-11-17T03:20:02.956Z,6.40
2022-11-17T03:21:03.140Z,6.40
2022-11-17T03:22:03.221Z,6.50
2022-11-17T03:23:03.426Z,6.40
2022-11-17T03:24:03.470Z,6.50
2022-11-17T03:25:03.463Z,6.50
2022-11-17T03:26:02.647Z,6.50
2022-11-17T03:27:02.847Z,6.40
2022-11-17T03:28:02.796Z,6.40
2022-11-17T03:29:02.887Z,6.40
2022-11-17T03:30:03.069Z,6.40
2022-11-17T03:31:03.022Z,6.40
2022-11-17T03:32:03.264Z,6.50
2022-11-17T03:33:03.306Z,6.40
2022-11-17T03:34:03.504Z,6.50
2022-11-17T03:35:03.496Z,6.50
2022-11-17T03:36:02.641Z,6.50
2022-11-17T03:37:02.772Z,6.40
2022-11-17T03:38:02.712Z,6.50
2022-11-17T03:39:02.793Z,6.40
2022-11-17T03:40:02.770Z,6.50
2022-11-17T03:41:02.863Z,6.50
2022-11-17T03:42:03.420Z,6.50
2022-11-17T03:43:03.508Z,6.50
2022-11-17T03:44:02.641Z,6.50
2022-11-17T03:45:02.699Z,6.50
2022-11-17T03:46:02.788Z,6.40
2022-11-17T03:47:02.911Z,6.40
2022-11-17T03:48:03.005Z,6.40
2022-11-17T03:49:03.062Z,6.40
2022-11-17T03:50:03.075Z,6.40
2022-11-17T03:51:03.096Z,6.40
2022-11-17T03:52:03.308Z,6.40
2022-11-17T03:53:03.278Z,6.40
2022-11-17T03:54:03.399Z,6.40
2022-11-17T03:55:02.648Z,6.40
2022-11-17T03:56:02.788Z,6.40
2022-11-17T03:57:02.773Z,6.40
2022-11-17T03:58:02.841Z,6.40
2022-11-17T03:59:02.858Z,6.40
2022-11-17T04:00:02.958Z,6.40
2022-11-17T04:01:02.815Z,6.30
2022-11-17T04:02:02.895Z,6.30
2022-11-17T04:03:03.051Z,6.30
2022-11-17T04:04:03.021Z,6.30
2022-11-17T04:05:03.022Z,6.30
2022-11-17T04:06:03.044Z,6.30
2022-11-17T04:07:03.352Z,6.30
2022-11-17T04:08:03.331Z,6.30
2022-11-17T04:09:03.409Z,6.30
2022-11-17T04:10:03.441Z,6.30
2022-11-17T04:11:03.574Z,6.30
2022-11-17T04:12:03.614Z,6.30
2022-11-17T04:13:03.607Z,6.30
2022-11-17T04:14:02.768Z,6.30
2022-11-17T04:15:02.725Z,6.30
2022-11-17T04:16:02.758Z,6.20
2022-11-17T04:17:02.844Z,6.20
2022-11-17T04:18:02.924Z,6.20
2022-11-17T04:19:02.889Z,6.20
2022-11-17T04:20:02.989Z,6.20
2022-11-17T04:21:03.086Z,6.20
2022-11-17T04:22:03.052Z,6.20
2022-11-17T04:23:03.121Z,6.20
2022-11-17T04:24:03.158Z,6.20
2022-11-17T04:25:03.181Z,6.20
2022-11-17T04:26:03.128Z,6.20
2022-11-17T04:27:03.244Z,6.20
2022-11-17T04:28:03.424Z,6.20
2022-11-17T04:29:03.512Z,6.20
2022-11-17T04:30:03.477Z,6.20
2022-11-17T04:31:03.578Z,6.20
2022-11-17T04:32:03.584Z,6.20
2022-11-17T04:33:03.597Z,6.20
2022-11-17T04:34:03.611Z,6.20
2022-11-17T04:35:02.629Z,6.20
2022-11-17T04:36:02.771Z,6.20
2022-11-17T04:37:08.093Z,6.20
2022-11-17T04:38:02.968Z,6.20
2022-11-17T04:39:02.933Z,6.20
2022-11-17T04:40:03.001Z,6.20
2022-11-17T04:41:02.973Z,6.20
2022-11-17T04:42:03.023Z,6.20
2022-11-17T04:43:03.184Z,6.20
2022-11-17T04:44:03.149Z,6.20
2022-11-17T04:45:03.186Z,6.20
2022-11-17T04:46:03.198Z,6.20
2022-11-17T04:47:03.209Z,6.20
2022-11-17T04:48:03.368Z,6.20
2022-11-17T04:49:03.467Z,6.20
2022-11-17T04:50:03.556Z,6.20
2022-11-17T04:51:03.567Z,6.20
2022-11-17T04:52:02.743Z,6.20
2022-11-17T04:53:02.735Z,6.20
2022-11-17T04:54:02.766Z,6.20
2022-11-17T04:55:03.398Z,6.20
2022-11-17T04:56:02.908Z,6.20
2022-11-17T04:57:02.908Z,6.20
2022-11-17T04:58:02.876Z,6.20
2022-11-17T04:59:03.621Z,6.20
2022-11-17T05:00:03.581Z,6.20
2022-11-17T05:01:03.576Z,6.20
2022-11-17T05:02:05.819Z,6.20
2022-11-17T05:03:02.816Z,6.20
2022-11-17T05:04:02.813Z,6.20
2022-11-17T05:05:03.066Z,6.20
2022-11-17T05:06:03.146Z,6.20
2022-11-17T05:07:03.347Z,6.20
2022-11-17T05:08:03.351Z,6.20
2022-11-17T05:09:03.380Z,6.30
2022-11-17T05:10:03.393Z,6.30
2022-11-17T05:11:03.464Z,6.30
2022-11-17T05:12:03.421Z,6.30
2022-11-17T05:13:03.407Z,6.30
2022-11-17T05:14:03.381Z,6.30
2022-11-17T05:15:03.422Z,6.30
2022-11-17T05:16:03.423Z,6.30
2022-11-17T05:17:08.937Z,6.30
2022-11-17T05:18:03.667Z,6.30
2022-11-17T05:19:02.657Z,6.30
2022-11-17T05:20:02.671Z,6.30
2022-11-17T05:21:02.666Z,6.30
2022-11-17T05:22:02.667Z,6.30
2022-11-17T05:23:06.507Z,6.30
2022-11-17T05:24:02.756Z,6.30
2022-11-17T05:25:03.330Z,6.30
2022-11-17T05:26:03.180Z,6.30
2022-11-17T05:27:03.354Z,6.40
2022-11-17T05:28:03.282Z,6.40
2022-11-17T05:29:03.256Z,6.40
2022-11-17T05:30:03.373Z,6.40
2022-11-17T05:31:03.559Z,6.40
2022-11-17T05:32:03.585Z,6.40
2022-11-17T05:33:02.671Z,6.40
2022-11-17T05:34:02.698Z,6.40
2022-11-17T05:35:02.733Z,6.40
2022-11-17T05:36:02.764Z,6.40
2022-11-17T05:37:02.771Z,6.40
2022-11-17T05:38:02.762Z,6.40
2022-11-17T05:39:02.837Z,6.40
2022-11-17T05:40:02.872Z,6.40
2022-11-17T05:41:02.873Z,6.40
2022-11-17T05:42:03.009Z,6.40
2022-11-17T05:43:02.993Z,6.40
2022-11-17T05:44:03.048Z,6.40
2022-11-17T05:45:03.029Z,6.40
2022-11-17T05:46:02.937Z,6.50
2022-11-17T05:47:03.065Z,6.50
2022-11-17T05:48:03.139Z,6.50
2022-11-17T05:49:03.106Z,6.50
2022-11-17T05:50:03.270Z,6.50
2022-11-17T05:51:03.198Z,6.50
2022-11-17T05:52:03.368Z,6.50
2022-11-17T05:53:02.986Z,6.50
2022-11-17T05:54:02.944Z,6.50
2022-11-17T05:55:02.900Z,6.50
2022-11-17T05:56:02.955Z,6.50
2022-11-17T05:57:02.920Z,6.50
2022-11-17T05:58:02.980Z,6.50
2022-11-17T05:59:02.987Z,6.50
2022-11-17T06:00:02.954Z,6.60
2022-11-17T06:01:03.056Z,6.60
2022-11-17T06:02:03.042Z,6.60
2022-11-17T06:03:03.181Z,6.60
2022-11-17T06:04:03.273Z,6.60
2022-11-17T06:05:03.164Z,6.60
2022-11-17T06:06:03.428Z,6.60
2022-11-17T06:07:03.472Z,6.60
2022-11-17T06:08:03.568Z,6.60
2022-11-17T06:09:02.736Z,6.60
2022-11-17T06:10:02.665Z,6.60
2022-11-17T06:11:03.138Z,6.60
2022-11-17T06:12:06.053Z,6.60
2022-11-17T06:13:03.190Z,6.60
2022-11-17T06:14:03.230Z,6.70
2022-11-17T06:15:02.829Z,6.70
2022-11-17T06:16:02.837Z,6.60
2022-11-17T06:17:02.847Z,6.60
2022-11-17T06:18:02.894Z,6.60
2022-11-17T06:19:03.005Z,6.60
2022-11-17T06:20:03.027Z,6.60
2022-11-17T06:21:03.096Z,6.60
2022-11-17T06:22:13.256Z,6.60
2022-11-17T06:23:03.300Z,6.60
2022-11-17T06:24:03.323Z,6.60
2022-11-17T06:25:03.389Z,6.60
2022-11-17T06:26:03.390Z,6.60
2022-11-17T06:27:03.509Z,6.60
2022-11-17T06:28:03.279Z,6.60
2022-11-17T06:29:03.286Z,6.50
2022-11-17T06:30:03.318Z,6.50
2022-11-17T06:31:03.277Z,6.50
2022-11-17T06:32:03.312Z,6.50
2022-11-17T06:33:03.363Z,6.50
2022-11-17T06:34:03.447Z,6.50
2022-11-17T06:35:03.557Z,6.50
2022-11-17T06:36:02.629Z,6.50
2022-11-17T06:37:02.686Z,6.50
2022-11-17T06:38:02.756Z,6.50
2022-11-17T06:39:02.790Z,6.50
2022-11-17T06:40:02.914Z,6.50
2022-11-17T06:41:08.885Z,6.50
2022-11-17T06:42:03.348Z,6.40
2022-11-17T06:43:03.326Z,6.40
2022-11-17T06:44:03.403Z,6.40
2022-11-17T06:45:03.445Z,6.40
2022-11-17T06:46:03.416Z,6.40
2022-11-17T06:47:03.478Z,6.40
2022-11-17T06:48:03.551Z,6.40
2022-11-17T06:49:03.615Z,6.40
2022-11-17T06:50:02.649Z,6.40
2022-11-17T06:51:03.629Z,6.40
2022-11-17T06:52:02.728Z,6.40
2022-11-17T06:53:02.853Z,6.40
2022-11-17T06:54:02.899Z,6.40
2022-11-17T06:55:02.938Z,6.40
2022-11-17T06:56:02.963Z,6.40
2022-11-17T06:57:03.051Z,6.40
2022-11-17T06:58:02.989Z,6.40
2022-11-17T06:59:03.171Z,6.40
2022-11-17T07:00:03.265Z,6.40
2022-11-17T07:01:03.312Z,6.40
2022-11-17T07:02:03.309Z,6.40
2022-11-17T07:03:03.345Z,6.40
2022-11-17T07:04:03.338Z,6.40
2022-11-17T07:05:03.350Z,6.40
2022-11-17T07:06:03.408Z,6.30
2022-11-17T07:07:03.537Z,6.40
2022-11-17T07:08:02.647Z,6.30
2022-11-17T07:09:02.685Z,6.30
2022-11-17T07:10:02.803Z,6.30
2022-11-17T07:11:02.832Z,6.30
2022-11-17T07:12:02.854Z,6.30
2022-11-17T07:13:02.837Z,6.30
2022-11-17T07:14:02.864Z,6.30
2022-11-17T07:15:03.053Z,6.30
2022-11-17T07:16:03.069Z,6.30
2022-11-17T07:17:03.121Z,6.30
2022-11-17T07:18:03.139Z,6.30
2022-11-17T07:19:03.129Z,6.30
2022-11-17T07:20:03.112Z,6.30
2022-11-17T07:21:03.149Z,6.30
2022-11-17T07:22:03.254Z,6.30
2022-11-17T07:23:03.414Z,6.30
2022-11-17T07:24:03.635Z,6.30
2022-11-17T07:25:02.645Z,6.30
2022-11-17T07:26:02.662Z,6.30
2022-11-17T07:27:02.756Z,6.30
2022-11-17T07:28:02.697Z,6.30
2022-11-17T07:29:02.736Z,6.30
2022-11-17T07:30:02.730Z,6.40
2022-11-17T07:31:02.720Z,6.40
2022-11-17T07:32:02.900Z,6.40
2022-11-17T07:33:02.895Z,6.40
2022-11-17T07:34:03.071Z,6.40
2022-11-17T07:35:03.040Z,6.40
2022-11-17T07:36:03.148Z,6.40
2022-11-17T07:37:03.287Z,6.40
2022-11-17T07:38:03.499Z,6.40
2022-11-17T07:39:03.495Z,6.40
2022-11-17T07:40:03.443Z,6.40
2022-11-17T07:41:03.612Z,6.40
2022-11-17T07:42:03.529Z,6.40
2022-11-17T07:43:03.499Z,6.40
2022-11-17T07:44:03.582Z,6.40
2022-11-17T07:45:02.645Z,6.40
2022-11-17T07:46:02.782Z,6.40
2022-11-17T07:47:02.747Z,6.40
2022-11-17T07:48:02.904Z,6.50
2022-11-17T07:49:03.049Z,6.50
2022-11-17T07:50:03.211Z,6.40
2022-11-17T07:51:03.372Z,6.50
2022-11-17T07:52:03.459Z,6.50
2022-11-17T07:53:03.465Z,6.50
2022-11-17T07:54:03.478Z,6.50
2022-11-17T07:55:02.651Z,6.50
2022-11-17T07:56:02.695Z,6.50
2022-11-17T07:57:02.899Z,6.50
2022-11-17T07:58:02.934Z,6.60
2022-11-17T07:59:02.943Z,6.60
2022-11-17T08:00:02.870Z,6.60
2022-11-17T08:01:02.945Z,6.60
2022-11-17T08:02:02.998Z,6.60
2022-11-17T08:03:03.072Z,6.60
2022-11-17T08:04:03.215Z,6.60
2022-11-17T08:05:03.216Z,6.70
2022-11-17T08:06:03.363Z,6.70
2022-11-17T08:07:03.523Z,6.70
2022-11-17T08:08:03.596Z,6.70
2022-11-17T08:09:02.786Z,6.70
2022-11-17T08:10:02.789Z,6.70
2022-11-17T08:11:02.779Z,6.80
2022-11-17T08:12:02.719Z,6.80
2022-11-17T08:13:02.713Z,6.80
2022-11-17T08:14:02.716Z,6.80
2022-11-17T08:15:02.668Z,6.80
2022-11-17T08:16:02.707Z,6.80
2022-11-17T08:17:02.836Z,6.80
2022-11-17T08:18:02.952Z,6.90
2022-11-17T08:19:02.959Z,6.90
2022-11-17T08:20:02.974Z,6.90
2022-11-17T08:21:02.969Z,6.90
2022-11-17T08:22:02.897Z,6.90
2022-11-17T08:23:02.899Z,6.90
2022-11-17T08:24:02.809Z,6.90
2022-11-17T08:25:02.834Z,7.00
2022-11-17T08:26:02.892Z,7.00
2022-11-17T08:27:02.927Z,7.00
2022-11-17T08:28:02.939Z,7.00
2022-11-17T08:29:02.846Z,7.00
2022-11-17T08:30:02.938Z,7.00
2022-11-17T08:31:02.914Z,7.00
2022-11-17T08:32:03.028Z,7.00
2022-11-17T08:33:03.624Z,7.00
2022-11-17T08:34:03.664Z,7.00
2022-11-17T08:35:02.650Z,7.00
2022-11-17T08:36:02.698Z,7.00
2022-11-17T08:37:02.706Z,7.10
2022-11-17T08:38:02.842Z,7.00
2022-11-17T08:39:02.889Z,7.10
2022-11-17T08:40:02.947Z,7.10
2022-11-17T08:41:03.046Z,7.10
2022-11-17T08:42:03.361Z,7.10
2022-11-17T08:43:03.546Z,7.10
2022-11-17T08:44:02.819Z,7.10
2022-11-17T08:45:02.929Z,7.10
2022-11-17T08:46:03.017Z,7.10
2022-11-17T08:47:03.018Z,7.10
2022-11-17T08:48:03.111Z,7.10
2022-11-17T08:49:03.206Z,7.20
2022-11-17T08:50:03.087Z,7.20
2022-11-17T08:51:03.312Z,7.20
2022-11-17T08:52:03.406Z,7.20
2022-11-17T08:53:03.545Z,7.20
2022-11-17T08:54:02.612Z,7.20
2022-11-17T08:55:03.148Z,7.20
2022-11-17T08:56:03.219Z,7.20
2022-11-17T08:57:03.287Z,7.20
2022-11-17T08:58:03.393Z,7.20
2022-11-17T08:59:03.482Z,7.20
2022-11-17T09:00:03.554Z,7.20
2022-11-17T09:01:05.429Z,7.20
2022-11-17T09:02:03.627Z,7.20
2022-11-17T09:03:02.834Z,7.20
2022-11-17T09:04:02.964Z,7.20
2022-11-17T09:05:02.868Z,7.30
2022-11-17T09:06:02.997Z,7.30
2022-11-17T09:07:02.951Z,7.30
2022-11-17T09:08:22.710Z,7.30
2022-11-17T09:09:03.489Z,7.30
2022-11-17T09:10:03.176Z,7.30
2022-11-17T09:11:03.098Z,7.30
2022-11-17T09:12:03.126Z,7.30
2022-11-17T09:13:03.199Z,7.30
2022-11-17T09:14:03.224Z,7.30
2022-11-17T09:15:03.342Z,7.30
2022-11-17T09:16:03.318Z,7.30
2022-11-17T09:17:03.372Z,7.30
2022-11-17T09:18:03.431Z,7.30
2022-11-17T09:19:03.461Z,7.40
2022-11-17T09:20:03.599Z,7.40
2022-11-17T09:21:02.610Z,7.40
2022-11-17T09:22:02.671Z,7.40
2022-11-17T09:23:02.718Z,7.40
2022-11-17T09:24:02.772Z,7.40
2022-11-17T09:25:02.845Z,7.40
2022-11-17T09:26:02.843Z,7.40
2022-11-17T09:27:02.974Z,7.40
2022-11-17T09:28:02.960Z,7.40
2022-11-17T09:29:03.009Z,7.40
2022-11-17T09:30:02.897Z,7.40
2022-11-17T09:31:03.081Z,7.40
2022-11-17T09:32:03.228Z,7.40
2022-11-17T09:33:03.320Z,7.50
2022-11-17T09:34:05.483Z,7.50
2022-11-17T09:35:03.272Z,7.50
2022-11-17T09:36:03.472Z,7.50
2022-11-17T09:37:03.480Z,7.50
2022-11-17T09:38:03.617Z,7.50
2022-11-17T09:39:02.719Z,7.50
2022-11-17T09:40:02.847Z,7.50
2022-11-17T09:41:02.774Z,7.60
2022-11-17T09:42:02.740Z,7.60
2022-11-17T09:43:02.751Z,7.60
2022-11-17T09:44:02.793Z,7.70
2022-11-17T09:45:02.878Z,7.70
2022-11-17T09:46:07.285Z,7.70
2022-11-17T09:47:02.911Z,7.80
2022-11-17T09:48:25.791Z,7.80
2022-11-17T09:49:02.924Z,7.80
2022-11-17T09:50:02.903Z,7.80
2022-11-17T09:51:02.991Z,7.90
2022-11-17T09:52:03.097Z,7.90
2022-11-17T09:53:03.082Z,7.90
2022-11-17T09:54:03.215Z,7.90
2022-11-17T09:55:03.145Z,7.90
2022-11-17T09:56:03.360Z,7.90
2022-11-17T09:57:03.383Z,7.90
2022-11-17T09:58:03.289Z,7.90
2022-11-17T09:59:03.526Z,7.90
2022-11-17T10:00:03.518Z,8.00
2022-11-17T10:01:03.543Z,8.00
2022-11-17T10:02:02.706Z,8.00
2022-11-17T10:03:02.738Z,8.00
2022-11-17T10:04:02.792Z,8.00
2022-11-17T10:05:02.910Z,8.00
2022-11-17T10:06:03.072Z,8.00
2022-11-17T10:07:03.138Z,8.00
2022-11-17T10:08:03.096Z,8.00
2022-11-17T10:09:03.058Z,8.00
2022-11-17T10:10:03.136Z,8.00
2022-11-17T10:11:03.203Z,8.00
2022-11-17T10:12:03.196Z,8.00
2022-11-17T10:13:03.214Z,8.00
2022-11-17T10:14:03.348Z,8.00
2022-11-17T10:15:03.354Z,8.00
2022-11-17T10:16:03.517Z,8.10
2022-11-17T10:17:03.548Z,8.10
2022-11-17T10:18:03.585Z,8.10
2022-11-17T10:19:02.691Z,8.20
2022-11-17T10:20:02.686Z,8.20
2022-11-17T10:21:02.783Z,8.30
2022-11-17T10:22:02.768Z,8.40
2022-11-17T10:23:02.827Z,8.50
2022-11-17T10:24:02.757Z,8.50
2022-11-17T10:25:02.887Z,8.60
2022-11-17T10:26:02.891Z,8.70
2022-11-17T10:27:02.847Z,8.80
2022-11-17T10:28:02.911Z,8.90
2022-11-17T10:29:06.945Z,8.90
2022-11-17T10:30:03.020Z,9.00
2022-11-17T10:31:03.080Z,9.00
2022-11-17T10:32:03.076Z,9.10
2022-11-17T10:33:03.086Z,9.10
2022-11-17T10:34:03.205Z,9.10
2022-11-17T10:35:03.163Z,9.10
2022-11-17T10:36:03.288Z,9.10
2022-11-17T10:37:03.376Z,9.10
2022-11-17T10:38:03.362Z,9.10
2022-11-17T10:39:03.414Z,9.10
2022-11-17T10:40:03.561Z,9.10
2022-11-17T10:41:02.640Z,9.20
2022-11-17T10:42:02.719Z,9.20
2022-11-17T10:43:02.773Z,9.20
2022-11-17T10:44:02.806Z,9.20
2022-11-17T10:45:02.798Z,9.20
2022-11-17T10:46:02.941Z,9.20
2022-11-17T10:47:03.228Z,9.20
2022-11-17T10:48:03.025Z,9.30
2022-11-17T10:49:03.090Z,9.30
2022-11-17T10:50:03.245Z,9.40
2022-11-17T10:51:03.267Z,9.40
2022-11-17T10:52:03.325Z,9.50
2022-11-17T10:53:03.531Z,9.50
2022-11-17T10:54:02.616Z,9.50
2022-11-17T10:55:02.652Z,9.60
2022-11-17T10:56:02.639Z,9.60
2022-11-17T10:57:02.764Z,9.60
2022-11-17T10:58:02.848Z,9.70
2022-11-17T10:59:02.933Z,9.70
2022-11-17T11:00:03.056Z,9.80
2022-11-17T11:01:03.273Z,9.80
2022-11-17T11:02:03.346Z,9.80
2022-11-17T11:03:03.338Z,9.80
2022-11-17T11:04:03.300Z,9.80
2022-11-17T11:05:02.986Z,9.90
2022-11-17T11:06:03.025Z,9.90
2022-11-17T11:07:03.223Z,9.90
2022-11-17T11:08:03.155Z,9.90
2022-11-17T11:09:03.236Z,10.00
2022-11-17T11:10:03.175Z,10.00
2022-11-17T11:11:03.229Z,10.00
2022-11-17T11:12:03.461Z,10.00
2022-11-17T11:13:03.492Z,10.00
2022-11-17T11:14:03.653Z,10.00
2022-11-17T11:15:02.694Z,10.00
2022-11-17T11:16:02.679Z,10.00
2022-11-17T11:17:02.676Z,10.00
2022-11-17T11:18:02.835Z,9.90
2022-11-17T11:19:02.820Z,9.90
2022-11-17T11:20:02.929Z,9.90
2022-11-17T11:21:03.165Z,9.90
2022-11-17T11:22:03.127Z,9.80
2022-11-17T11:23:03.129Z,9.80
2022-11-17T11:24:03.069Z,9.80
2022-11-17T11:25:03.109Z,9.80
2022-11-17T11:26:03.076Z,9.80
2022-11-17T11:27:03.068Z,9.70
2022-11-17T11:28:03.133Z,9.70
2022-11-17T11:29:03.225Z,9.70
2022-11-17T11:30:03.233Z,9.70
2022-11-17T11:31:03.327Z,9.60
2022-11-17T11:32:03.420Z,9.70
2022-11-17T11:33:03.452Z,9.60
2022-11-17T11:34:03.531Z,9.70
2022-11-17T11:35:03.502Z,9.60
2022-11-17T11:36:03.550Z,9.60
2022-11-17T11:37:03.555Z,9.70
2022-11-17T11:38:03.635Z,9.70
2022-11-17T11:39:02.776Z,9.70
2022-11-17T11:40:02.710Z,9.70
2022-11-17T11:41:02.831Z,9.70
2022-11-17T11:42:07.630Z,9.70
2022-11-17T11:43:02.747Z,9.70
2022-11-17T11:44:02.781Z,9.70
2022-11-17T11:45:02.865Z,9.70
2022-11-17T11:46:02.819Z,9.70
2022-11-17T11:47:02.877Z,9.70
2022-11-17T11:48:02.870Z,9.70
2022-11-17T11:49:02.999Z,9.70
2022-11-17T11:50:03.163Z,9.70
2022-11-17T11:51:03.083Z,9.70
2022-11-17T11:52:03.145Z,9.70
2022-11-17T11:53:03.208Z,9.70
2022-11-17T11:54:03.245Z,9.70
2022-11-17T11:55:03.342Z,9.60
2022-11-17T11:56:03.298Z,9.60
2022-11-17T11:57:03.228Z,9.60
2022-11-17T11:58:03.399Z,9.60
2022-11-17T11:59:03.412Z,9.60
2022-11-17T12:00:04.292Z,9.60
2022-11-17T12:01:02.691Z,9.60
2022-11-17T12:02:02.823Z,9.60
2022-11-17T12:03:02.866Z,9.50
2022-11-17T12:04:02.914Z,9.50
2022-11-17T12:05:02.975Z,9.50
2022-11-17T12:06:02.958Z,9.50
2022-11-17T12:07:02.985Z,9.50
2022-11-17T12:08:07.540Z,9.50
2022-11-17T12:09:03.018Z,9.50
2022-11-17T12:10:03.113Z,9.40
2022-11-17T12:11:03.064Z,9.50
2022-11-17T12:12:03.282Z,9.50
2022-11-17T12:13:03.234Z,9.40
2022-11-17T12:14:03.250Z,9.40
2022-11-17T12:15:03.753Z,9.40
2022-11-17T12:16:03.429Z,9.40
2022-11-17T12:17:03.527Z,9.40
2022-11-17T12:18:03.447Z,9.30
2022-11-17T12:19:03.451Z,9.30
2022-11-17T12:20:09.444Z,9.30
2022-11-17T12:21:02.722Z,9.30
2022-11-17T12:22:02.684Z,9.30
2022-11-17T12:23:02.687Z,9.30
2022-11-17T12:24:02.774Z,9.20
2022-11-17T12:25:02.742Z,9.20
2022-11-17T12:26:02.810Z,9.20
2022-11-17T12:27:02.731Z,9.20
2022-11-17T12:28:02.751Z,9.20
2022-11-17T12:29:02.809Z,9.20
2022-11-17T12:30:02.824Z,9.20
2022-11-17T12:31:08.467Z,9.30
2022-11-17T12:32:02.852Z,9.30
2022-11-17T12:33:02.944Z,9.30
2022-11-17T12:34:03.067Z,9.30
2022-11-17T12:35:03.060Z,9.30
2022-11-17T12:36:03.276Z,9.40
2022-11-17T12:37:03.348Z,9.40
2022-11-17T12:38:03.475Z,9.40
2022-11-17T12:39:03.593Z,9.40
2022-11-17T12:40:03.607Z,9.40
2022-11-17T12:41:03.597Z,9.40
2022-11-17T12:42:02.683Z,9.40
2022-11-17T12:43:02.722Z,9.40
2022-11-17T12:44:02.757Z,9.40
2022-11-17T12:45:02.792Z,9.40
2022-11-17T12:46:02.717Z,9.40
2022-11-17T12:47:02.733Z,9.50
2022-11-17T12:48:26.692Z,9.50
2022-11-17T12:49:02.789Z,9.50
2022-11-17T12:50:02.871Z,9.50
2022-11-17T12:51:04.941Z,9.50
2022-11-17T12:52:02.833Z,9.50
2022-11-17T12:53:02.844Z,9.60
2022-11-17T12:54:02.978Z,9.60
2022-11-17T12:55:02.975Z,9.60
2022-11-17T12:56:02.904Z,9.60
2022-11-17T12:57:03.077Z,9.60
2022-11-17T12:58:06.276Z,9.70
2022-11-17T12:59:02.977Z,9.70
2022-11-17T13:00:03.104Z,9.70
2022-11-17T13:01:03.298Z,9.70
2022-11-17T13:02:03.120Z,9.80
2022-11-17T13:03:03.304Z,9.80
2022-11-17T13:04:03.347Z,9.80
2022-11-17T13:05:03.611Z,9.80
2022-11-17T13:06:28.122Z,9.80
2022-11-17T13:07:02.769Z,9.80
2022-11-17T13:08:02.706Z,9.80
2022-11-17T13:09:02.684Z,9.80
2022-11-17T13:10:02.834Z,9.80
2022-11-17T13:11:02.782Z,9.80
2022-11-17T13:12:02.928Z,9.80
2022-11-17T13:13:02.905Z,9.80
2022-11-17T13:14:02.903Z,9.80
2022-11-17T13:15:02.960Z,9.80
2022-11-17T13:16:02.924Z,9.80
2022-11-17T13:17:03.073Z,9.80
2022-11-17T13:18:02.928Z,9.70